createdAt,value
2018-11-03T00:00:56.579Z,100.00
2018-11-03T00:03:25.633Z,100.00
2018-11-03T00:05:54.689Z,100.00
2018-11-03T00:08:23.749Z,100.00
2018-11-03T00:10:52.821Z,100.00
2018-11-03T00:13:21.900Z,100.00
2018-11-03T00:15:51.881Z,100.00
2018-11-03T00:18:20.936Z,100.00
2018-11-03T00:23:25.757Z,100.00
2018-11-03T00:25:54.856Z,100.00
2018-11-03T00:28:24.016Z,100.00
2018-11-03T00:30:53.135Z,100.00
2018-11-03T00:33:22.160Z,100.00
2018-11-03T00:35:51.237Z,100.00
2018-11-03T00:38:21.252Z,100.00
2018-11-03T00:40:50.301Z,100.00
2018-11-03T00:45:55.085Z,100.00
2018-11-03T00:48:24.139Z,100.00
2018-11-03T00:53:28.911Z,100.00
2018-11-03T00:58:33.659Z,100.00
2018-11-03T01:03:38.397Z,100.00
2018-11-03T01:08:43.154Z,100.00
2018-11-03T01:13:47.899Z,100.00
2018-11-03T01:18:55.171Z,100.00
2018-11-03T01:21:24.262Z,100.00
2018-11-03T01:23:53.394Z,100.00
2018-11-03T01:26:22.391Z,100.00
2018-11-03T01:28:51.459Z,100.00
2018-11-03T01:31:20.619Z,100.00
2018-11-03T01:33:50.676Z,100.00
2018-11-03T01:36:19.734Z,100.00
2018-11-03T01:38:48.781Z,100.00
2018-11-03T01:41:17.841Z,100.00
2018-11-03T01:43:46.910Z,100.00
2018-11-03T01:46:15.972Z,100.00
2018-11-03T01:48:45.118Z,100.00
2018-11-03T01:51:14.177Z,100.00
2018-11-03T01:53:43.241Z,100.00
2018-11-03T01:56:13.271Z,100.00
2018-11-03T01:58:42.305Z,100.00
2018-11-03T02:01:11.361Z,100.00
2018-11-03T02:03:40.436Z,100.00
2018-11-03T02:06:09.509Z,100.00
2018-11-03T02:08:38.675Z,100.00
2018-11-03T02:11:07.713Z,100.00
2018-11-03T02:13:36.760Z,100.00
2018-11-03T02:16:07.721Z,100.00
2018-11-03T02:23:48.275Z,100.00
2018-11-03T02:26:17.329Z,100.00
2018-11-03T02:28:46.469Z,100.00
2018-11-03T02:31:15.533Z,100.00
2018-11-03T02:33:44.618Z,100.00
2018-11-03T02:36:13.653Z,100.00
2018-11-03T02:38:42.705Z,100.00
2018-11-03T02:41:11.745Z,100.00
2018-11-03T02:43:40.824Z,100.00
2018-11-03T02:46:09.871Z,100.00
2018-11-03T02:53:50.366Z,100.00
2018-11-03T02:58:55.121Z,100.00
2018-11-03T03:03:59.861Z,100.00
2018-11-03T03:06:30.883Z,100.00
2018-11-03T03:08:59.960Z,100.00
2018-11-03T03:14:09.509Z,100.00
2018-11-03T03:16:38.580Z,100.00
2018-11-03T03:19:07.638Z,100.00
2018-11-03T03:21:36.711Z,100.00
2018-11-03T03:24:07.758Z,100.00
2018-11-03T03:26:36.814Z,100.00
2018-11-03T03:29:06.989Z,100.00
2018-11-03T03:31:35.825Z,100.00
2018-11-03T03:36:40.592Z,100.00
2018-11-03T03:39:09.700Z,100.00
2018-11-03T03:41:38.742Z,100.00
2018-11-03T03:44:07.840Z,100.00
2018-11-03T03:46:36.925Z,100.00
2018-11-03T03:49:06.024Z,100.00
2018-11-03T03:51:36.049Z,100.00
2018-11-03T03:54:05.096Z,100.00
2018-11-03T03:59:09.860Z,100.00
2018-11-03T04:01:38.893Z,100.00
2018-11-03T04:04:07.945Z,100.00
2018-11-03T04:09:12.698Z,100.00
2018-11-03T04:11:41.750Z,100.00
2018-11-03T04:14:10.789Z,100.00
2018-11-03T04:16:39.938Z,100.00
2018-11-03T04:21:44.746Z,100.00
2018-11-03T04:24:13.904Z,100.00
2018-11-03T04:26:42.994Z,100.00
2018-11-03T04:29:12.118Z,100.00
2018-11-03T04:31:41.179Z,100.00
2018-11-03T04:36:46.483Z,100.00
2018-11-03T04:39:15.524Z,100.00
2018-11-03T04:41:44.588Z,100.00
2018-11-03T04:46:49.451Z,100.00
2018-11-03T04:51:54.214Z,99.88
2018-11-03T04:54:23.270Z,100.00
2018-11-03T04:56:52.353Z,100.00
2018-11-03T04:59:22.392Z,100.00
2018-11-03T05:01:51.413Z,100.00
2018-11-03T05:09:33.401Z,100.00
2018-11-03T05:12:02.495Z,99.97
2018-11-03T05:17:07.302Z,100.00
2018-11-03T05:22:12.054Z,100.00
2018-11-03T05:24:42.151Z,99.61
2018-11-03T05:27:11.225Z,99.28
2018-11-03T05:29:40.265Z,99.33
2018-11-03T05:32:09.331Z,99.56
2018-11-03T05:34:38.443Z,99.01
2018-11-03T05:37:07.495Z,100.00
2018-11-03T05:39:36.546Z,100.00
2018-11-03T05:42:05.593Z,100.00
2018-11-03T05:44:34.637Z,100.00
2018-11-03T05:47:04.640Z,99.85
2018-11-03T05:49:33.688Z,99.63
2018-11-03T05:52:02.806Z,99.70
2018-11-03T05:54:31.945Z,99.59
2018-11-03T05:57:01.003Z,100.00
2018-11-03T05:59:30.135Z,100.00
2018-11-03T06:04:34.948Z,100.00
2018-11-03T06:07:04.021Z,100.00
2018-11-03T06:09:33.086Z,100.00
2018-11-03T06:12:02.147Z,100.00
2018-11-03T06:14:31.192Z,100.00
2018-11-03T06:17:00.296Z,100.00
2018-11-03T06:19:29.389Z,100.00
2018-11-03T06:24:34.187Z,100.00
2018-11-03T06:27:03.240Z,100.00
2018-11-03T06:29:32.297Z,100.00
2018-11-03T06:32:01.357Z,100.00
2018-11-03T06:34:31.025Z,100.00
2018-11-03T06:37:00.142Z,100.00
2018-11-03T06:39:29.197Z,100.00
2018-11-03T06:41:58.237Z,100.00
2018-11-03T06:47:03.066Z,100.00
2018-11-03T06:49:32.140Z,100.00
2018-11-03T06:52:03.211Z,100.00
2018-11-03T06:54:32.268Z,99.91
2018-11-03T06:57:03.320Z,99.64
2018-11-03T07:02:08.073Z,98.86
2018-11-03T07:07:15.051Z,98.79
2018-11-03T07:09:44.079Z,98.48
2018-11-03T07:12:13.274Z,99.26
2018-11-03T07:14:42.226Z,97.96
2018-11-03T07:19:47.267Z,95.90
2018-11-03T07:22:19.179Z,95.09
2018-11-03T07:24:49.300Z,96.07
2018-11-03T07:27:22.166Z,96.65
2018-11-03T07:29:54.810Z,97.32
2018-11-03T07:32:27.391Z,96.56
2018-11-03T07:34:56.638Z,95.36
2018-11-03T07:37:25.619Z,95.21
2018-11-03T07:39:54.662Z,94.27
2018-11-03T07:42:23.822Z,93.63
2018-11-03T07:47:29.625Z,92.79
2018-11-03T07:49:59.629Z,93.77
2018-11-03T07:52:28.712Z,94.12
2018-11-03T07:54:58.731Z,93.30
2018-11-03T07:57:27.781Z,94.78
2018-11-03T07:59:56.945Z,94.58
2018-11-03T08:02:27.990Z,93.83
2018-11-03T08:04:57.117Z,94.14
2018-11-03T08:10:02.543Z,93.88
2018-11-03T08:12:31.597Z,94.03
2018-11-03T08:15:00.665Z,93.43
2018-11-03T08:17:29.889Z,93.85
2018-11-03T08:19:58.957Z,94.42
2018-11-03T08:22:28.147Z,94.31
2018-11-03T08:24:57.227Z,96.11
2018-11-03T08:27:26.276Z,95.75
2018-11-03T08:32:31.522Z,92.62
2018-11-03T08:35:04.536Z,91.62
2018-11-03T08:37:33.596Z,89.96
2018-11-03T08:40:02.630Z,88.94
2018-11-03T08:42:31.687Z,88.74
2018-11-03T08:45:00.790Z,88.17
2018-11-03T08:47:29.848Z,87.19
2018-11-03T08:49:58.889Z,89.00
2018-11-03T08:52:27.953Z,87.44
2018-11-03T08:54:56.991Z,85.83
2018-11-03T08:57:26.109Z,84.11
2018-11-03T09:02:30.876Z,82.49
2018-11-03T09:04:59.941Z,83.07
2018-11-03T09:07:30.959Z,85.79
2018-11-03T09:10:00.022Z,83.65
2018-11-03T09:12:29.082Z,87.39
2018-11-03T09:15:01.382Z,82.09
2018-11-03T09:17:30.405Z,78.89
2018-11-03T09:19:59.559Z,77.96
2018-11-03T09:22:28.647Z,79.31
2018-11-03T09:24:57.774Z,74.39
2018-11-03T09:27:30.250Z,75.33
2018-11-03T09:32:35.025Z,78.00
2018-11-03T09:35:04.098Z,76.51
2018-11-03T09:37:33.353Z,80.85
2018-11-03T09:40:03.391Z,76.86
2018-11-03T09:42:40.603Z,74.92
2018-11-03T09:45:17.492Z,78.91
2018-11-03T09:47:47.011Z,75.71
2018-11-03T09:50:16.375Z,73.16
2018-11-03T09:52:47.413Z,71.48
2018-11-03T09:55:16.470Z,68.35
2018-11-03T10:00:21.322Z,71.56
2018-11-03T10:02:50.367Z,74.01
2018-11-03T10:05:19.431Z,69.97
2018-11-03T10:07:48.666Z,70.46
2018-11-03T10:10:17.715Z,69.14
2018-11-03T10:12:46.821Z,69.04
2018-11-03T10:15:15.928Z,71.48
2018-11-03T10:17:45.996Z,68.22
2018-11-03T10:20:15.045Z,68.33
2018-11-03T10:22:44.258Z,71.23
2018-11-03T10:25:13.233Z,69.32
2018-11-03T10:30:19.019Z,65.99
2018-11-03T10:32:49.280Z,67.54
2018-11-03T10:35:18.340Z,66.43
2018-11-03T10:37:48.779Z,64.18
2018-11-03T10:40:23.193Z,67.74
2018-11-03T10:42:56.023Z,73.52
2018-11-03T10:45:40.445Z,73.67
2018-11-03T10:48:10.528Z,68.54
2018-11-03T10:50:40.598Z,66.43
2018-11-03T10:53:09.649Z,67.17
2018-11-03T10:55:38.715Z,72.09
2018-11-03T10:58:07.869Z,71.06
2018-11-03T11:00:36.934Z,69.30
2018-11-03T11:05:45.905Z,66.10
2018-11-03T11:11:14.868Z,66.00
2018-11-03T11:13:43.897Z,63.15
2018-11-03T11:16:13.000Z,61.29
2018-11-03T11:18:45.519Z,61.60
2018-11-03T11:26:28.135Z,57.43
2018-11-03T11:28:57.204Z,59.86
2018-11-03T11:31:26.381Z,59.71
2018-11-03T11:33:55.385Z,61.09
2018-11-03T11:39:00.211Z,62.33
2018-11-03T11:41:29.385Z,61.67
2018-11-03T11:44:03.441Z,59.85
2018-11-03T11:46:32.502Z,58.72
2018-11-03T11:49:01.571Z,63.92
2018-11-03T11:51:34.119Z,65.49
2018-11-03T11:54:03.573Z,66.42
2018-11-03T11:56:32.612Z,66.28
2018-11-03T11:59:01.689Z,66.66
2018-11-03T12:11:57.410Z,71.55
2018-11-03T12:14:26.461Z,68.79
2018-11-03T12:16:56.429Z,67.95
2018-11-03T12:19:25.497Z,68.05
2018-11-03T12:21:54.550Z,67.39
2018-11-03T12:24:23.619Z,68.44
2018-11-03T12:26:52.685Z,67.23
2018-11-03T12:31:57.541Z,68.63
2018-11-03T12:34:26.602Z,69.25
2018-11-03T12:36:55.874Z,69.52
2018-11-03T12:39:24.939Z,68.86
2018-11-03T12:41:54.003Z,67.59
2018-11-03T12:44:24.035Z,66.39
2018-11-03T12:46:53.124Z,66.34
2018-11-03T12:49:22.164Z,66.76
2018-11-03T12:51:51.248Z,66.38
2018-11-03T12:59:31.751Z,62.62
2018-11-03T13:02:00.839Z,63.21
2018-11-03T13:07:05.589Z,72.14
2018-11-03T13:09:34.694Z,73.01
2018-11-03T13:12:03.815Z,74.27
2018-11-03T13:17:08.803Z,73.80
2018-11-03T13:19:38.816Z,70.98
2018-11-03T13:22:10.015Z,71.69
2018-11-03T13:24:39.083Z,71.18
2018-11-03T13:27:08.132Z,74.84
2018-11-03T13:34:48.727Z,75.43
2018-11-03T13:37:17.765Z,75.79
2018-11-03T13:39:47.959Z,77.39
2018-11-03T13:42:17.008Z,77.79
2018-11-03T13:44:49.707Z,76.62
2018-11-03T13:47:18.836Z,74.24
2018-11-03T13:49:47.818Z,72.05
2018-11-03T13:52:16.870Z,70.77
2018-11-03T13:54:47.916Z,71.91
2018-11-03T13:57:16.969Z,72.66
2018-11-03T13:59:46.017Z,74.03
2018-11-03T14:02:15.077Z,74.88
2018-11-03T14:04:44.184Z,74.13
2018-11-03T14:07:13.254Z,78.58
2018-11-03T14:09:43.315Z,76.71
2018-11-03T14:12:13.356Z,78.66
2018-11-03T14:14:42.402Z,77.74
2018-11-03T14:17:11.551Z,78.40
2018-11-03T14:19:40.558Z,76.70
2018-11-03T14:22:09.663Z,75.74
2018-11-03T14:24:38.721Z,78.42
2018-11-03T14:27:08.756Z,78.20
2018-11-03T14:29:37.816Z,75.37
2018-11-03T14:32:06.900Z,74.59
2018-11-03T14:34:37.917Z,76.59
2018-11-03T14:37:07.204Z,78.42
2018-11-03T14:39:36.255Z,78.05
2018-11-03T14:42:05.324Z,79.66
2018-11-03T14:44:34.385Z,77.58
2018-11-03T14:47:03.441Z,79.64
2018-11-03T14:49:32.508Z,81.04
2018-11-03T14:52:01.554Z,81.04
2018-11-03T14:57:07.515Z,82.72
2018-11-03T14:59:36.591Z,82.84
2018-11-03T15:02:05.645Z,84.49
2018-11-03T15:04:36.782Z,83.81
2018-11-03T15:07:07.770Z,83.79
2018-11-03T15:12:13.050Z,84.79
2018-11-03T15:14:42.222Z,85.96
2018-11-03T15:17:11.286Z,87.15
2018-11-03T15:19:40.360Z,87.48
2018-11-03T15:22:12.656Z,87.72
2018-11-03T15:24:41.693Z,88.89
2018-11-03T15:27:19.604Z,89.37
2018-11-03T15:29:48.685Z,90.03
2018-11-03T15:32:18.722Z,90.23
2018-11-03T15:34:47.812Z,89.97
2018-11-03T15:37:16.823Z,89.48
2018-11-03T15:39:45.892Z,88.69
2018-11-03T15:42:14.941Z,87.75
2018-11-03T15:44:44.014Z,89.70
2018-11-03T15:47:14.033Z,90.76
2018-11-03T15:49:45.078Z,91.74
2018-11-03T15:52:14.133Z,90.98
2018-11-03T15:54:44.225Z,89.92
2018-11-03T15:57:14.218Z,90.85
2018-11-03T15:59:43.279Z,90.22
2018-11-03T16:02:12.337Z,91.35
2018-11-03T16:04:46.249Z,91.32
2018-11-03T16:09:52.135Z,93.12
2018-11-03T16:12:21.522Z,93.45
2018-11-03T16:14:50.439Z,93.42
2018-11-03T16:17:19.507Z,93.51
2018-11-03T16:19:48.711Z,94.96
2018-11-03T16:22:19.643Z,94.58
2018-11-03T16:24:48.708Z,94.17
2018-11-03T16:29:54.453Z,94.22
2018-11-03T16:32:23.725Z,95.20
2018-11-03T16:34:52.584Z,95.05
2018-11-03T16:37:21.621Z,93.99
2018-11-03T16:39:50.736Z,93.80
2018-11-03T16:42:19.818Z,94.24
2018-11-03T16:44:48.882Z,94.12
2018-11-03T16:47:17.943Z,94.94
2018-11-03T16:49:47.951Z,95.79
2018-11-03T16:52:17.068Z,94.20
2018-11-03T16:54:54.019Z,96.05
2018-11-03T16:57:23.094Z,95.67
2018-11-03T16:59:52.156Z,95.40
2018-11-03T17:02:22.187Z,96.35
2018-11-03T17:04:51.404Z,95.58
2018-11-03T17:07:21.488Z,96.10
2018-11-03T17:09:51.484Z,95.99
2018-11-03T17:12:20.603Z,95.63
2018-11-03T17:14:49.599Z,95.76
2018-11-03T17:17:18.655Z,96.38
2018-11-03T17:19:47.786Z,95.32
2018-11-03T17:22:17.861Z,95.57
2018-11-03T17:24:46.933Z,97.19
2018-11-03T17:29:51.686Z,97.80
2018-11-03T17:32:20.744Z,96.21
2018-11-03T17:34:50.825Z,96.84
2018-11-03T17:39:56.618Z,97.55
2018-11-03T17:42:26.659Z,98.54
2018-11-03T17:44:55.706Z,96.89
2018-11-03T17:47:24.760Z,96.06
2018-11-03T17:49:53.994Z,94.94
2018-11-03T17:57:34.519Z,95.88
2018-11-03T18:00:05.554Z,95.63
2018-11-03T18:02:34.568Z,94.81
2018-11-03T18:05:03.614Z,94.05
2018-11-03T18:07:34.634Z,94.42
2018-11-03T18:10:03.694Z,95.32
2018-11-03T18:12:32.751Z,96.14
2018-11-03T18:15:01.798Z,97.13
2018-11-03T18:17:30.982Z,97.54
2018-11-03T18:22:39.279Z,97.44
2018-11-03T18:25:08.324Z,98.25
2018-11-03T18:27:37.393Z,97.93
2018-11-03T18:30:06.452Z,97.81
2018-11-03T18:32:35.499Z,97.24
2018-11-03T18:35:05.504Z,96.73
2018-11-03T18:37:34.577Z,96.80
2018-11-03T18:40:05.542Z,97.17
2018-11-03T18:42:34.582Z,96.75
2018-11-03T18:45:04.459Z,96.61
2018-11-03T18:47:33.493Z,96.00
2018-11-03T18:50:06.338Z,95.83
2018-11-03T18:52:35.373Z,95.10
2018-11-03T18:55:04.442Z,95.60
2018-11-03T18:57:33.500Z,94.69
2018-11-03T19:00:06.424Z,94.06
2018-11-03T19:02:35.525Z,95.31
2018-11-03T19:05:04.525Z,97.37
2018-11-03T19:07:35.573Z,97.56
2018-11-03T19:10:06.516Z,97.46
2018-11-03T19:12:37.541Z,98.20
2018-11-03T19:15:06.598Z,97.55
2018-11-03T19:17:35.648Z,97.27
2018-11-03T19:20:04.799Z,96.72
2018-11-03T19:22:33.830Z,95.70
2018-11-03T19:25:02.895Z,95.05
2018-11-03T19:32:43.379Z,95.24
2018-11-03T19:40:23.935Z,94.96
2018-11-03T19:42:52.935Z,93.50
2018-11-03T19:45:22.056Z,94.05
2018-11-03T19:47:51.041Z,94.68
2018-11-03T19:50:20.090Z,96.96
2018-11-03T19:52:49.180Z,96.48
2018-11-03T19:55:18.241Z,95.92
2018-11-03T19:57:47.441Z,97.37
2018-11-03T20:00:16.487Z,97.81
2018-11-03T20:02:46.600Z,97.05
2018-11-03T20:07:51.261Z,97.20
2018-11-03T20:10:20.335Z,97.54
2018-11-03T20:12:49.412Z,97.53
2018-11-03T20:15:18.460Z,97.60
2018-11-03T20:17:50.500Z,97.30
2018-11-03T20:20:23.561Z,97.58
2018-11-03T20:22:52.609Z,98.35
2018-11-03T20:25:21.669Z,98.56
2018-11-03T20:27:50.721Z,98.95
2018-11-03T20:30:21.693Z,98.01
2018-11-03T20:32:50.745Z,98.31
2018-11-03T20:35:19.821Z,97.58
2018-11-03T20:40:24.584Z,98.28
2018-11-03T20:42:53.660Z,97.94
2018-11-03T20:45:22.724Z,97.97
2018-11-03T20:47:51.776Z,98.19
2018-11-03T20:52:58.650Z,98.65
2018-11-03T20:55:29.597Z,99.48
2018-11-03T20:57:59.794Z,99.35
2018-11-03T21:00:28.855Z,99.49
2018-11-03T21:02:57.926Z,100.00
2018-11-03T21:05:28.949Z,99.47
2018-11-03T21:07:58.059Z,100.00
2018-11-03T21:10:27.150Z,100.00
2018-11-03T21:12:56.193Z,100.00
2018-11-03T21:15:25.258Z,100.00
2018-11-03T21:17:54.294Z,100.00
2018-11-03T21:20:23.357Z,100.00
2018-11-03T21:22:55.610Z,100.00
2018-11-03T21:25:26.684Z,100.00
2018-11-03T21:27:55.708Z,99.70
2018-11-03T21:30:25.777Z,99.84
2018-11-03T21:32:55.972Z,99.97
2018-11-03T21:35:26.792Z,100.00
2018-11-03T21:37:55.843Z,99.78
2018-11-03T21:40:24.912Z,99.55
2018-11-03T21:42:53.985Z,99.93
2018-11-03T21:45:24.978Z,99.48
2018-11-03T21:47:54.052Z,99.92
2018-11-03T21:52:58.877Z,100.00
2018-11-03T21:55:27.924Z,100.00
2018-11-03T21:57:56.983Z,100.00
2018-11-03T22:00:26.026Z,100.00
2018-11-03T22:05:31.772Z,99.88
2018-11-03T22:08:00.843Z,100.00
2018-11-03T22:10:31.837Z,100.00
2018-11-03T22:13:01.037Z,100.00
2018-11-03T22:15:30.097Z,99.37
2018-11-03T22:17:59.296Z,100.00
2018-11-03T22:20:28.572Z,100.00
2018-11-03T22:22:57.670Z,100.00
2018-11-03T22:25:26.711Z,100.00
2018-11-03T22:27:55.864Z,100.00
2018-11-03T22:30:24.873Z,100.00
2018-11-03T22:32:54.063Z,100.00
2018-11-03T22:35:23.148Z,100.00
2018-11-03T22:37:52.244Z,100.00
2018-11-03T22:40:21.325Z,100.00
2018-11-03T22:42:50.364Z,100.00
2018-11-03T22:45:19.421Z,100.00
2018-11-03T22:50:26.796Z,100.00
2018-11-03T22:55:37.577Z,100.00
2018-11-03T23:00:44.367Z,100.00
2018-11-03T23:03:13.449Z,100.00
2018-11-03T23:05:44.495Z,100.00
2018-11-03T23:08:15.517Z,100.00
2018-11-03T23:10:44.569Z,100.00
2018-11-03T23:13:13.714Z,100.00
2018-11-03T23:15:42.691Z,100.00
2018-11-03T23:20:48.443Z,100.00
2018-11-03T23:23:17.512Z,100.00
2018-11-03T23:25:47.492Z,100.00
2018-11-03T23:28:16.549Z,100.00
2018-11-03T23:33:21.301Z,100.00
2018-11-03T23:35:57.931Z,100.00
2018-11-03T23:38:27.976Z,100.00
2018-11-03T23:40:57.001Z,100.00
2018-11-03T23:43:26.048Z,100.00
2018-11-03T23:45:56.109Z,100.00
2018-11-03T23:48:25.141Z,100.00
2018-11-03T23:53:29.965Z,100.00
2018-11-03T23:55:59.009Z,100.00
2018-11-03T23:58:31.081Z,100.00
